sensor_id;sensor_type;location;lat;lon;timestamp;P1;durP1;ratioP1;P2;durP2;ratioP2
13325;SDS011;6732;51.044;3.746;2022-09-13T00:00:55;3.00;;;2.70;;
13325;SDS011;6732;51.044;3.746;2022-09-13T00:03:23;2.42;;;2.17;;
13325;SDS011;6732;51.044;3.746;2022-09-13T00:05:49;3.58;;;2.83;;
13325;SDS011;6732;51.044;3.746;2022-09-13T00:08:15;5.45;;;2.83;;
13325;SDS011;6732;51.044;3.746;2022-09-13T00:10:44;10.93;;;2.83;;
13325;SDS011;6732;51.044;3.746;2022-09-13T00:13:11;2.75;;;2.50;;
13325;SDS011;6732;51.044;3.746;2022-09-13T00:15:42;2.58;;;2.38;;
13325;SDS011;6732;51.044;3.746;2022-09-13T00:18:13;6.00;;;3.13;;
13325;SDS011;6732;51.044;3.746;2022-09-13T00:20:40;4.05;;;2.45;;
13325;SDS011;6732;51.044;3.746;2022-09-13T00:23:07;4.05;;;2.58;;
13325;SDS011;6732;51.044;3.746;2022-09-13T00:25:33;2.58;;;2.30;;
13325;SDS011;6732;51.044;3.746;2022-09-13T00:27:59;3.63;;;2.33;;
13325;SDS011;6732;51.044;3.746;2022-09-13T00:30:25;4.90;;;2.50;;
13325;SDS011;6732;51.044;3.746;2022-09-13T00:32:51;4.93;;;3.00;;
13325;SDS011;6732;51.044;3.746;2022-09-13T00:35:17;3.63;;;2.60;;
13325;SDS011;6732;51.044;3.746;2022-09-13T00:37:44;5.00;;;2.40;;
13325;SDS011;6732;51.044;3.746;2022-09-13T00:40:10;4.35;;;2.58;;
13325;SDS011;6732;51.044;3.746;2022-09-13T00:42:36;3.90;;;2.78;;
13325;SDS011;6732;51.044;3.746;2022-09-13T00:50:14;4.25;;;2.80;;
13325;SDS011;6732;51.044;3.746;2022-09-13T00:52:42;2.60;;;2.40;;
13325;SDS011;6732;51.044;3.746;2022-09-13T00:55:18;2.70;;;2.50;;
13325;SDS011;6732;51.044;3.746;2022-09-13T00:57:49;5.65;;;2.75;;
13325;SDS011;6732;51.044;3.746;2022-09-13T01:00:17;5.05;;;2.67;;
13325;SDS011;6732;51.044;3.746;2022-09-13T01:03:03;3.70;;;2.35;;
13325;SDS011;6732;51.044;3.746;2022-09-13T01:05:36;4.13;;;2.95;;
13325;SDS011;6732;51.044;3.746;2022-09-13T01:08:08;5.18;;;2.47;;
13325;SDS011;6732;51.044;3.746;2022-09-13T01:10:41;3.45;;;2.88;;
13325;SDS011;6732;51.044;3.746;2022-09-13T01:13:12;2.40;;;2.20;;
13325;SDS011;6732;51.044;3.746;2022-09-13T01:15:44;3.75;;;2.50;;
13325;SDS011;6732;51.044;3.746;2022-09-13T01:18:10;2.78;;;2.53;;
13325;SDS011;6732;51.044;3.746;2022-09-13T01:23:33;3.20;;;2.90;;
13325;SDS011;6732;51.044;3.746;2022-09-13T01:26:40;5.03;;;2.83;;
13325;SDS011;6732;51.044;3.746;2022-09-13T01:32:16;2.90;;;2.60;;
13325;SDS011;6732;51.044;3.746;2022-09-13T01:40:23;3.13;;;2.42;;
13325;SDS011;6732;51.044;3.746;2022-09-13T01:45:47;4.95;;;3.10;;
13325;SDS011;6732;51.044;3.746;2022-09-13T01:51:15;4.03;;;2.47;;
13325;SDS011;6732;51.044;3.746;2022-09-13T01:56:42;5.28;;;2.90;;
13325;SDS011;6732;51.044;3.746;2022-09-13T01:59:38;3.50;;;3.08;;
13325;SDS011;6732;51.044;3.746;2022-09-13T02:02:20;3.40;;;2.92;;
13325;SDS011;6732;51.044;3.746;2022-09-13T02:08:03;5.00;;;2.95;;
13325;SDS011;6732;51.044;3.746;2022-09-13T02:10:47;4.38;;;2.90;;
13325;SDS011;6732;51.044;3.746;2022-09-13T02:13:22;4.65;;;2.97;;
13325;SDS011;6732;51.044;3.746;2022-09-13T02:15:53;9.75;;;3.10;;
13325;SDS011;6732;51.044;3.746;2022-09-13T02:18:25;4.72;;;3.10;;
13325;SDS011;6732;51.044;3.746;2022-09-13T02:21:06;4.32;;;3.20;;
13325;SDS011;6732;51.044;3.746;2022-09-13T02:23:43;3.35;;;2.72;;
13325;SDS011;6732;51.044;3.746;2022-09-13T02:26:20;3.63;;;3.20;;
13325;SDS011;6732;51.044;3.746;2022-09-13T02:28:50;2.65;;;2.45;;
13325;SDS011;6732;51.044;3.746;2022-09-13T02:31:19;4.55;;;2.70;;
13325;SDS011;6732;51.044;3.746;2022-09-13T02:33:59;3.20;;;2.70;;
13325;SDS011;6732;51.044;3.746;2022-09-13T02:36:34;4.03;;;2.83;;
13325;SDS011;6732;51.044;3.746;2022-09-13T02:39:14;3.60;;;2.85;;
13325;SDS011;6732;51.044;3.746;2022-09-13T02:44:15;4.38;;;3.10;;
13325;SDS011;6732;51.044;3.746;2022-09-13T02:58:01;6.65;;;2.97;;
13325;SDS011;6732;51.044;3.746;2022-09-13T03:00:33;3.00;;;2.78;;
13325;SDS011;6732;51.044;3.746;2022-09-13T03:03:02;7.65;;;2.53;;
13325;SDS011;6732;51.044;3.746;2022-09-13T03:05:31;3.20;;;2.78;;
13325;SDS011;6732;51.044;3.746;2022-09-13T03:07:57;3.72;;;2.75;;
13325;SDS011;6732;51.044;3.746;2022-09-13T03:10:24;3.35;;;2.75;;
13325;SDS011;6732;51.044;3.746;2022-09-13T03:13:13;5.57;;;2.92;;
13325;SDS011;6732;51.044;3.746;2022-09-13T03:15:50;2.80;;;2.60;;
13325;SDS011;6732;51.044;3.746;2022-09-13T03:18:36;2.60;;;2.40;;
13325;SDS011;6732;51.044;3.746;2022-09-13T03:21:22;2.67;;;2.40;;
13325;SDS011;6732;51.044;3.746;2022-09-13T03:24:26;3.40;;;3.10;;
13325;SDS011;6732;51.044;3.746;2022-09-13T03:27:10;3.42;;;2.88;;
13325;SDS011;6732;51.044;3.746;2022-09-13T03:30:04;3.92;;;2.90;;
13325;SDS011;6732;51.044;3.746;2022-09-13T03:35:16;4.10;;;2.83;;
13325;SDS011;6732;51.044;3.746;2022-09-13T03:41:14;4.28;;;2.80;;
13325;SDS011;6732;51.044;3.746;2022-09-13T03:43:51;3.92;;;2.60;;
13325;SDS011;6732;51.044;3.746;2022-09-13T03:46:37;4.50;;;2.92;;
13325;SDS011;6732;51.044;3.746;2022-09-13T03:49:06;4.10;;;2.60;;
13325;SDS011;6732;51.044;3.746;2022-09-13T03:51:36;3.08;;;2.35;;
13325;SDS011;6732;51.044;3.746;2022-09-13T03:54:05;3.00;;;2.60;;
13325;SDS011;6732;51.044;3.746;2022-09-13T03:57:01;5.03;;;2.72;;
13325;SDS011;6732;51.044;3.746;2022-09-13T03:59:30;3.38;;;2.92;;
13325;SDS011;6732;51.044;3.746;2022-09-13T04:01:56;3.17;;;2.47;;
13325;SDS011;6732;51.044;3.746;2022-09-13T04:04:22;4.45;;;3.00;;
13325;SDS011;6732;51.044;3.746;2022-09-13T04:06:48;4.70;;;2.70;;
13325;SDS011;6732;51.044;3.746;2022-09-13T04:09:13;5.35;;;3.65;;
13325;SDS011;6732;51.044;3.746;2022-09-13T04:11:39;3.20;;;2.90;;
13325;SDS011;6732;51.044;3.746;2022-09-13T04:14:05;4.28;;;3.05;;
13325;SDS011;6732;51.044;3.746;2022-09-13T04:16:31;4.47;;;2.60;;
13325;SDS011;6732;51.044;3.746;2022-09-13T04:18:57;3.20;;;2.90;;
13325;SDS011;6732;51.044;3.746;2022-09-13T04:21:23;3.38;;;2.92;;
13325;SDS011;6732;51.044;3.746;2022-09-13T04:23:49;4.25;;;3.13;;
13325;SDS011;6732;51.044;3.746;2022-09-13T04:26:15;4.65;;;3.03;;
13325;SDS011;6732;51.044;3.746;2022-09-13T04:28:41;3.17;;;2.88;;
13325;SDS011;6732;51.044;3.746;2022-09-13T04:31:07;4.07;;;3.00;;
13325;SDS011;6732;51.044;3.746;2022-09-13T04:33:33;3.45;;;2.60;;
13325;SDS011;6732;51.044;3.746;2022-09-13T04:36:00;4.43;;;2.75;;
13325;SDS011;6732;51.044;3.746;2022-09-13T04:38:26;4.38;;;2.78;;
13325;SDS011;6732;51.044;3.746;2022-09-13T04:40:54;3.50;;;2.65;;
13325;SDS011;6732;51.044;3.746;2022-09-13T04:43:20;3.78;;;2.97;;
13325;SDS011;6732;51.044;3.746;2022-09-13T04:45:46;3.22;;;2.90;;
13325;SDS011;6732;51.044;3.746;2022-09-13T04:48:12;5.50;;;2.88;;
13325;SDS011;6732;51.044;3.746;2022-09-13T04:50:39;6.50;;;2.80;;
13325;SDS011;6732;51.044;3.746;2022-09-13T04:53:04;4.78;;;3.00;;
13325;SDS011;6732;51.044;3.746;2022-09-13T04:55:30;3.38;;;2.72;;
13325;SDS011;6732;51.044;3.746;2022-09-13T04:57:56;3.97;;;2.63;;
13325;SDS011;6732;51.044;3.746;2022-09-13T05:00:22;4.38;;;2.67;;
13325;SDS011;6732;51.044;3.746;2022-09-13T05:02:53;4.28;;;2.80;;
13325;SDS011;6732;51.044;3.746;2022-09-13T05:05:21;5.00;;;2.80;;
13325;SDS011;6732;51.044;3.746;2022-09-13T05:07:50;5.05;;;3.28;;
13325;SDS011;6732;51.044;3.746;2022-09-13T05:10:17;4.72;;;2.97;;
13325;SDS011;6732;51.044;3.746;2022-09-13T05:12:43;4.13;;;3.30;;
13325;SDS011;6732;51.044;3.746;2022-09-13T05:15:09;4.40;;;3.10;;
13325;SDS011;6732;51.044;3.746;2022-09-13T05:17:37;4.53;;;3.15;;
13325;SDS011;6732;51.044;3.746;2022-09-13T05:20:03;6.35;;;3.00;;
13325;SDS011;6732;51.044;3.746;2022-09-13T05:22:30;6.47;;;3.33;;
13325;SDS011;6732;51.044;3.746;2022-09-13T05:24:56;3.88;;;3.25;;
13325;SDS011;6732;51.044;3.746;2022-09-13T05:27:22;5.03;;;3.08;;
13325;SDS011;6732;51.044;3.746;2022-09-13T05:29:47;5.18;;;3.30;;
13325;SDS011;6732;51.044;3.746;2022-09-13T05:32:13;5.82;;;3.30;;
13325;SDS011;6732;51.044;3.746;2022-09-13T05:34:39;6.30;;;2.88;;
13325;SDS011;6732;51.044;3.746;2022-09-13T05:37:05;5.70;;;4.07;;
13325;SDS011;6732;51.044;3.746;2022-09-13T05:39:32;5.45;;;4.05;;
13325;SDS011;6732;51.044;3.746;2022-09-13T05:41:57;4.72;;;3.72;;
13325;SDS011;6732;51.044;3.746;2022-09-13T05:44:24;4.75;;;3.47;;
13325;SDS011;6732;51.044;3.746;2022-09-13T05:46:50;5.22;;;4.28;;
13325;SDS011;6732;51.044;3.746;2022-09-13T05:49:16;5.55;;;3.80;;
13325;SDS011;6732;51.044;3.746;2022-09-13T05:51:42;5.65;;;3.80;;
13325;SDS011;6732;51.044;3.746;2022-09-13T05:54:09;5.88;;;3.45;;
13325;SDS011;6732;51.044;3.746;2022-09-13T05:56:36;4.93;;;3.72;;
13325;SDS011;6732;51.044;3.746;2022-09-13T05:59:02;6.13;;;3.80;;
13325;SDS011;6732;51.044;3.746;2022-09-13T06:01:28;6.50;;;4.18;;
13325;SDS011;6732;51.044;3.746;2022-09-13T06:03:55;5.22;;;3.83;;
13325;SDS011;6732;51.044;3.746;2022-09-13T06:06:22;8.80;;;3.90;;
13325;SDS011;6732;51.044;3.746;2022-09-13T06:08:52;5.47;;;3.70;;
13325;SDS011;6732;51.044;3.746;2022-09-13T06:11:19;8.07;;;3.92;;
13325;SDS011;6732;51.044;3.746;2022-09-13T06:13:45;4.10;;;3.67;;
13325;SDS011;6732;51.044;3.746;2022-09-13T06:16:11;4.35;;;3.95;;
13325;SDS011;6732;51.044;3.746;2022-09-13T06:18:39;5.93;;;4.10;;
13325;SDS011;6732;51.044;3.746;2022-09-13T06:21:06;5.47;;;3.72;;
13325;SDS011;6732;51.044;3.746;2022-09-13T06:23:53;5.97;;;4.05;;
13325;SDS011;6732;51.044;3.746;2022-09-13T06:26:20;6.30;;;4.32;;
13325;SDS011;6732;51.044;3.746;2022-09-13T06:28:48;8.18;;;4.03;;
13325;SDS011;6732;51.044;3.746;2022-09-13T06:31:26;6.63;;;4.43;;
13325;SDS011;6732;51.044;3.746;2022-09-13T06:33:59;7.18;;;5.13;;
13325;SDS011;6732;51.044;3.746;2022-09-13T06:36:27;7.22;;;5.55;;
13325;SDS011;6732;51.044;3.746;2022-09-13T06:38:53;10.13;;;5.75;;
13325;SDS011;6732;51.044;3.746;2022-09-13T06:41:21;12.25;;;5.45;;
13325;SDS011;6732;51.044;3.746;2022-09-13T06:43:53;14.43;;;6.38;;
13325;SDS011;6732;51.044;3.746;2022-09-13T06:46:21;12.52;;;6.10;;
13325;SDS011;6732;51.044;3.746;2022-09-13T06:48:48;9.85;;;5.22;;
13325;SDS011;6732;51.044;3.746;2022-09-13T06:51:15;12.10;;;5.78;;
13325;SDS011;6732;51.044;3.746;2022-09-13T06:53:42;11.48;;;5.60;;
13325;SDS011;6732;51.044;3.746;2022-09-13T06:58:37;9.95;;;6.07;;
13325;SDS011;6732;51.044;3.746;2022-09-13T07:01:12;13.30;;;5.93;;
13325;SDS011;6732;51.044;3.746;2022-09-13T07:03:47;10.57;;;5.93;;
13325;SDS011;6732;51.044;3.746;2022-09-13T07:06:16;7.70;;;5.63;;
13325;SDS011;6732;51.044;3.746;2022-09-13T07:08:45;9.25;;;5.07;;
13325;SDS011;6732;51.044;3.746;2022-09-13T07:11:12;13.75;;;5.55;;
13325;SDS011;6732;51.044;3.746;2022-09-13T07:13:40;9.70;;;6.18;;
13325;SDS011;6732;51.044;3.746;2022-09-13T07:16:07;11.02;;;6.03;;
13325;SDS011;6732;51.044;3.746;2022-09-13T07:18:35;12.07;;;6.22;;
13325;SDS011;6732;51.044;3.746;2022-09-13T07:21:04;13.68;;;6.25;;
13325;SDS011;6732;51.044;3.746;2022-09-13T07:23:33;15.25;;;7.30;;
13325;SDS011;6732;51.044;3.746;2022-09-13T07:26:00;15.38;;;7.30;;
13325;SDS011;6732;51.044;3.746;2022-09-13T07:28:31;14.07;;;7.70;;
13325;SDS011;6732;51.044;3.746;2022-09-13T07:31:14;12.75;;;7.75;;
13325;SDS011;6732;51.044;3.746;2022-09-13T07:33:45;13.73;;;7.00;;
13325;SDS011;6732;51.044;3.746;2022-09-13T07:36:12;17.30;;;9.10;;
13325;SDS011;6732;51.044;3.746;2022-09-13T07:38:39;16.52;;;8.70;;
13325;SDS011;6732;51.044;3.746;2022-09-13T07:41:07;18.83;;;11.30;;
13325;SDS011;6732;51.044;3.746;2022-09-13T07:43:38;20.75;;;10.75;;
13325;SDS011;6732;51.044;3.746;2022-09-13T07:46:05;22.48;;;12.98;;
13325;SDS011;6732;51.044;3.746;2022-09-13T07:48:33;20.20;;;13.18;;
13325;SDS011;6732;51.044;3.746;2022-09-13T07:51:02;21.38;;;13.40;;
13325;SDS011;6732;51.044;3.746;2022-09-13T07:53:30;20.00;;;13.10;;
13325;SDS011;6732;51.044;3.746;2022-09-13T07:56:01;18.90;;;12.50;;
13325;SDS011;6732;51.044;3.746;2022-09-13T07:58:27;19.77;;;13.57;;
13325;SDS011;6732;51.044;3.746;2022-09-13T08:00:54;19.45;;;12.30;;
13325;SDS011;6732;51.044;3.746;2022-09-13T08:03:22;18.02;;;12.45;;
13325;SDS011;6732;51.044;3.746;2022-09-13T08:05:48;19.65;;;11.90;;
13325;SDS011;6732;51.044;3.746;2022-09-13T08:08:14;16.52;;;11.98;;
13325;SDS011;6732;51.044;3.746;2022-09-13T08:10:40;18.50;;;12.50;;
13325;SDS011;6732;51.044;3.746;2022-09-13T08:13:06;16.40;;;12.57;;
13325;SDS011;6732;51.044;3.746;2022-09-13T08:15:32;17.67;;;11.75;;
13325;SDS011;6732;51.044;3.746;2022-09-13T08:17:58;17.65;;;13.60;;
13325;SDS011;6732;51.044;3.746;2022-09-13T08:20:24;15.73;;;11.85;;
13325;SDS011;6732;51.044;3.746;2022-09-13T08:22:50;16.75;;;12.40;;
13325;SDS011;6732;51.044;3.746;2022-09-13T08:25:16;19.00;;;11.55;;
13325;SDS011;6732;51.044;3.746;2022-09-13T08:27:42;18.13;;;12.15;;
13325;SDS011;6732;51.044;3.746;2022-09-13T08:30:08;14.00;;;11.93;;
13325;SDS011;6732;51.044;3.746;2022-09-13T08:32:34;15.18;;;11.70;;
13325;SDS011;6732;51.044;3.746;2022-09-13T08:35:00;14.65;;;11.73;;
13325;SDS011;6732;51.044;3.746;2022-09-13T08:37:26;16.83;;;12.00;;
13325;SDS011;6732;51.044;3.746;2022-09-13T08:39:52;28.23;;;13.57;;
13325;SDS011;6732;51.044;3.746;2022-09-13T08:42:23;29.75;;;13.35;;
13325;SDS011;6732;51.044;3.746;2022-09-13T08:44:59;26.52;;;11.75;;
13325;SDS011;6732;51.044;3.746;2022-09-13T08:47:34;20.48;;;11.55;;
13325;SDS011;6732;51.044;3.746;2022-09-13T08:50:16;16.27;;;11.63;;
13325;SDS011;6732;51.044;3.746;2022-09-13T08:52:48;13.90;;;10.88;;
13325;SDS011;6732;51.044;3.746;2022-09-13T08:55:30;14.70;;;11.05;;
13325;SDS011;6732;51.044;3.746;2022-09-13T09:06:29;15.48;;;10.95;;
13325;SDS011;6732;51.044;3.746;2022-09-13T09:08:58;13.77;;;10.10;;
13325;SDS011;6732;51.044;3.746;2022-09-13T09:11:36;10.48;;;9.38;;
13325;SDS011;6732;51.044;3.746;2022-09-13T09:14:29;11.77;;;9.02;;
13325;SDS011;6732;51.044;3.746;2022-09-13T09:19:35;13.90;;;8.73;;
13325;SDS011;6732;51.044;3.746;2022-09-13T09:22:08;11.18;;;8.57;;
13325;SDS011;6732;51.044;3.746;2022-09-13T09:24:38;9.18;;;7.97;;
13325;SDS011;6732;51.044;3.746;2022-09-13T09:27:12;13.48;;;8.68;;
13325;SDS011;6732;51.044;3.746;2022-09-13T09:29:40;9.48;;;7.80;;
13325;SDS011;6732;51.044;3.746;2022-09-13T09:40:48;9.55;;;7.88;;
13325;SDS011;6732;51.044;3.746;2022-09-13T09:43:16;8.18;;;6.90;;
13325;SDS011;6732;51.044;3.746;2022-09-13T09:45:49;11.65;;;7.35;;
13325;SDS011;6732;51.044;3.746;2022-09-13T09:48:19;12.68;;;7.18;;
13325;SDS011;6732;51.044;3.746;2022-09-13T09:50:52;8.85;;;7.00;;
13325;SDS011;6732;51.044;3.746;2022-09-13T09:53:32;11.60;;;7.35;;
13325;SDS011;6732;51.044;3.746;2022-09-13T09:56:26;10.70;;;7.75;;
13325;SDS011;6732;51.044;3.746;2022-09-13T09:58:55;8.48;;;6.88;;
13325;SDS011;6732;51.044;3.746;2022-09-13T10:01:28;14.13;;;7.82;;
13325;SDS011;6732;51.044;3.746;2022-09-13T10:04:14;11.15;;;7.28;;
13325;SDS011;6732;51.044;3.746;2022-09-13T10:06:44;7.88;;;6.30;;
13325;SDS011;6732;51.044;3.746;2022-09-13T10:09:18;5.95;;;5.35;;
13325;SDS011;6732;51.044;3.746;2022-09-13T10:11:52;10.43;;;6.10;;
13325;SDS011;6732;51.044;3.746;2022-09-13T10:19:40;12.15;;;6.68;;
13325;SDS011;6732;51.044;3.746;2022-09-13T10:22:15;9.25;;;6.03;;
13325;SDS011;6732;51.044;3.746;2022-09-13T10:24:41;7.97;;;6.10;;
13325;SDS011;6732;51.044;3.746;2022-09-13T10:27:25;9.68;;;6.55;;
13325;SDS011;6732;51.044;3.746;2022-09-13T10:30:01;8.13;;;5.70;;
13325;SDS011;6732;51.044;3.746;2022-09-13T10:32:31;7.50;;;5.65;;
13325;SDS011;6732;51.044;3.746;2022-09-13T10:35:07;11.00;;;5.40;;
13325;SDS011;6732;51.044;3.746;2022-09-13T10:37:41;8.90;;;5.70;;
13325;SDS011;6732;51.044;3.746;2022-09-13T10:40:17;7.20;;;5.55;;
13325;SDS011;6732;51.044;3.746;2022-09-13T10:42:54;8.23;;;6.00;;
13325;SDS011;6732;51.044;3.746;2022-09-13T10:45:23;6.57;;;5.25;;
13325;SDS011;6732;51.044;3.746;2022-09-13T10:47:52;8.52;;;6.38;;
13325;SDS011;6732;51.044;3.746;2022-09-13T10:50:24;8.98;;;5.43;;
13325;SDS011;6732;51.044;3.746;2022-09-13T10:52:52;11.25;;;5.82;;
13325;SDS011;6732;51.044;3.746;2022-09-13T10:57:49;9.45;;;5.35;;
13325;SDS011;6732;51.044;3.746;2022-09-13T11:20:46;8.65;;;5.30;;
13325;SDS011;6732;51.044;3.746;2022-09-13T11:31:32;10.77;;;7.20;;
13325;SDS011;6732;51.044;3.746;2022-09-13T11:52:49;7.85;;;6.40;;
13325;SDS011;6732;51.044;3.746;2022-09-13T11:55:27;10.77;;;7.28;;
13325;SDS011;6732;51.044;3.746;2022-09-13T11:58:00;11.00;;;6.10;;
13325;SDS011;6732;51.044;3.746;2022-09-13T12:00:45;10.85;;;6.18;;
13325;SDS011;6732;51.044;3.746;2022-09-13T12:03:20;9.35;;;7.07;;
13325;SDS011;6732;51.044;3.746;2022-09-13T12:05:56;11.02;;;6.55;;
13325;SDS011;6732;51.044;3.746;2022-09-13T12:08:31;7.95;;;5.97;;
13325;SDS011;6732;51.044;3.746;2022-09-13T12:13:35;10.02;;;7.18;;
13325;SDS011;6732;51.044;3.746;2022-09-13T12:16:08;9.40;;;7.63;;
13325;SDS011;6732;51.044;3.746;2022-09-13T12:18:39;9.73;;;7.53;;
13325;SDS011;6732;51.044;3.746;2022-09-13T12:21:13;12.77;;;8.35;;
13325;SDS011;6732;51.044;3.746;2022-09-13T12:32:16;10.70;;;7.90;;
13325;SDS011;6732;51.044;3.746;2022-09-13T12:43:19;11.32;;;8.15;;
13325;SDS011;6732;51.044;3.746;2022-09-13T12:46:02;10.02;;;6.78;;
13325;SDS011;6732;51.044;3.746;2022-09-13T12:48:35;10.40;;;7.90;;
13325;SDS011;6732;51.044;3.746;2022-09-13T12:56:30;9.57;;;7.70;;
13325;SDS011;6732;51.044;3.746;2022-09-13T13:02:27;9.40;;;7.35;;
13325;SDS011;6732;51.044;3.746;2022-09-13T13:05:23;9.40;;;8.50;;
13325;SDS011;6732;51.044;3.746;2022-09-13T13:07:51;9.77;;;7.95;;
13325;SDS011;6732;51.044;3.746;2022-09-13T13:13:52;6.03;;;4.60;;
13325;SDS011;6732;51.044;3.746;2022-09-13T13:16:37;6.55;;;4.28;;
13325;SDS011;6732;51.044;3.746;2022-09-13T13:19:26;6.03;;;3.92;;
13325;SDS011;6732;51.044;3.746;2022-09-13T13:22:13;5.78;;;3.70;;
13325;SDS011;6732;51.044;3.746;2022-09-13T13:25:25;6.00;;;3.80;;
13325;SDS011;6732;51.044;3.746;2022-09-13T13:27:56;6.25;;;3.95;;
13325;SDS011;6732;51.044;3.746;2022-09-13T13:30:39;6.72;;;4.07;;
13325;SDS011;6732;51.044;3.746;2022-09-13T13:33:12;4.20;;;3.80;;
13325;SDS011;6732;51.044;3.746;2022-09-13T13:35:41;7.80;;;4.07;;
13325;SDS011;6732;51.044;3.746;2022-09-13T13:38:13;5.43;;;3.60;;
13325;SDS011;6732;51.044;3.746;2022-09-13T13:40:39;5.97;;;3.80;;
13325;SDS011;6732;51.044;3.746;2022-09-13T13:46:43;5.25;;;4.47;;
13325;SDS011;6732;51.044;3.746;2022-09-13T13:48:46;5.78;;;4.28;;
13325;SDS011;6732;51.044;3.746;2022-09-13T13:51:13;7.55;;;4.18;;
13325;SDS011;6732;51.044;3.746;2022-09-13T13:53:43;4.55;;;4.10;;
13325;SDS011;6732;51.044;3.746;2022-09-13T13:56:29;6.50;;;4.20;;
13325;SDS011;6732;51.044;3.746;2022-09-13T14:01:38;5.45;;;3.95;;
13325;SDS011;6732;51.044;3.746;2022-09-13T14:10:03;5.43;;;4.10;;
13325;SDS011;6732;51.044;3.746;2022-09-13T14:13:00;5.15;;;4.30;;
13325;SDS011;6732;51.044;3.746;2022-09-13T14:21:25;4.50;;;3.60;;
13325;SDS011;6732;51.044;3.746;2022-09-13T14:26:41;4.30;;;3.90;;
13325;SDS011;6732;51.044;3.746;2022-09-13T14:29:07;5.80;;;4.15;;
13325;SDS011;6732;51.044;3.746;2022-09-13T14:31:34;4.30;;;3.90;;
13325;SDS011;6732;51.044;3.746;2022-09-13T14:34:01;4.55;;;4.07;;
13325;SDS011;6732;51.044;3.746;2022-09-13T14:36:27;4.85;;;4.20;;
13325;SDS011;6732;51.044;3.746;2022-09-13T14:38:57;5.40;;;4.05;;
13325;SDS011;6732;51.044;3.746;2022-09-13T14:41:35;4.53;;;3.70;;
13325;SDS011;6732;51.044;3.746;2022-09-13T14:44:13;4.63;;;4.10;;
13325;SDS011;6732;51.044;3.746;2022-09-13T14:46:44;5.93;;;4.03;;
13325;SDS011;6732;51.044;3.746;2022-09-13T14:49:16;6.43;;;4.45;;
13325;SDS011;6732;51.044;3.746;2022-09-13T14:51:56;4.85;;;4.07;;
13325;SDS011;6732;51.044;3.746;2022-09-13T14:54:37;4.85;;;3.53;;
13325;SDS011;6732;51.044;3.746;2022-09-13T14:57:14;5.40;;;3.67;;
13325;SDS011;6732;51.044;3.746;2022-09-13T14:59:54;4.72;;;3.80;;
13325;SDS011;6732;51.044;3.746;2022-09-13T15:02:46;4.60;;;4.20;;
13325;SDS011;6732;51.044;3.746;2022-09-13T15:05:25;5.68;;;3.50;;
13325;SDS011;6732;51.044;3.746;2022-09-13T15:07:53;4.82;;;3.67;;
13325;SDS011;6732;51.044;3.746;2022-09-13T15:10:21;6.35;;;3.95;;
13325;SDS011;6732;51.044;3.746;2022-09-13T15:12:54;3.50;;;3.10;;
13325;SDS011;6732;51.044;3.746;2022-09-13T15:20:43;6.05;;;4.07;;
13325;SDS011;6732;51.044;3.746;2022-09-13T15:23:20;6.68;;;4.00;;
13325;SDS011;6732;51.044;3.746;2022-09-13T15:26:06;6.45;;;3.58;;
13325;SDS011;6732;51.044;3.746;2022-09-13T15:31:09;5.75;;;4.45;;
13325;SDS011;6732;51.044;3.746;2022-09-13T15:33:43;6.50;;;3.78;;
13325;SDS011;6732;51.044;3.746;2022-09-13T15:38:54;5.68;;;4.20;;
13325;SDS011;6732;51.044;3.746;2022-09-13T15:41:28;6.53;;;4.15;;
13325;SDS011;6732;51.044;3.746;2022-09-13T15:43:56;4.35;;;3.85;;
13325;SDS011;6732;51.044;3.746;2022-09-13T15:46:23;6.85;;;3.85;;
13325;SDS011;6732;51.044;3.746;2022-09-13T15:48:50;3.80;;;3.50;;
13325;SDS011;6732;51.044;3.746;2022-09-13T15:51:21;4.80;;;4.00;;
13325;SDS011;6732;51.044;3.746;2022-09-13T15:53:47;8.00;;;5.75;;
13325;SDS011;6732;51.044;3.746;2022-09-13T15:56:17;8.07;;;5.78;;
13325;SDS011;6732;51.044;3.746;2022-09-13T15:58:45;7.20;;;3.90;;
13325;SDS011;6732;51.044;3.746;2022-09-13T16:01:12;6.70;;;4.05;;
13325;SDS011;6732;51.044;3.746;2022-09-13T16:03:39;6.13;;;3.95;;
13325;SDS011;6732;51.044;3.746;2022-09-13T16:06:06;9.13;;;4.10;;
13325;SDS011;6732;51.044;3.746;2022-09-13T16:08:36;10.00;;;4.05;;
13325;SDS011;6732;51.044;3.746;2022-09-13T16:11:03;6.78;;;3.47;;
13325;SDS011;6732;51.044;3.746;2022-09-13T16:13:30;5.20;;;3.63;;
13325;SDS011;6732;51.044;3.746;2022-09-13T16:15:56;6.25;;;3.80;;
13325;SDS011;6732;51.044;3.746;2022-09-13T16:18:23;6.15;;;3.53;;
13325;SDS011;6732;51.044;3.746;2022-09-13T16:20:49;5.13;;;3.47;;
13325;SDS011;6732;51.044;3.746;2022-09-13T16:23:16;9.68;;;4.00;;
13325;SDS011;6732;51.044;3.746;2022-09-13T16:25:42;9.32;;;4.18;;
13325;SDS011;6732;51.044;3.746;2022-09-13T16:28:12;9.77;;;4.10;;
13325;SDS011;6732;51.044;3.746;2022-09-13T16:30:42;5.55;;;3.83;;
13325;SDS011;6732;51.044;3.746;2022-09-13T16:33:08;7.10;;;3.95;;
13325;SDS011;6732;51.044;3.746;2022-09-13T16:35:34;8.70;;;4.50;;
13325;SDS011;6732;51.044;3.746;2022-09-13T16:38:00;9.85;;;4.03;;
13325;SDS011;6732;51.044;3.746;2022-09-13T16:40:26;9.43;;;4.30;;
13325;SDS011;6732;51.044;3.746;2022-09-13T16:42:52;6.80;;;3.83;;
13325;SDS011;6732;51.044;3.746;2022-09-13T16:45:18;6.10;;;3.83;;
13325;SDS011;6732;51.044;3.746;2022-09-13T16:47:44;6.50;;;3.65;;
13325;SDS011;6732;51.044;3.746;2022-09-13T16:50:10;8.68;;;4.15;;
13325;SDS011;6732;51.044;3.746;2022-09-13T16:52:37;11.98;;;4.30;;
13325;SDS011;6732;51.044;3.746;2022-09-13T16:55:03;8.13;;;5.32;;
13325;SDS011;6732;51.044;3.746;2022-09-13T16:57:30;17.52;;;6.30;;
13325;SDS011;6732;51.044;3.746;2022-09-13T16:59:56;34.15;;;9.60;;
13325;SDS011;6732;51.044;3.746;2022-09-13T17:02:23;48.08;;;13.23;;
13325;SDS011;6732;51.044;3.746;2022-09-13T17:04:50;76.85;;;19.98;;
13325;SDS011;6732;51.044;3.746;2022-09-13T17:07:16;76.03;;;19.10;;
13325;SDS011;6732;51.044;3.746;2022-09-13T17:09:42;94.90;;;23.00;;
13325;SDS011;6732;51.044;3.746;2022-09-13T17:12:09;84.57;;;21.33;;
13325;SDS011;6732;51.044;3.746;2022-09-13T17:14:38;91.00;;;22.77;;
13325;SDS011;6732;51.044;3.746;2022-09-13T17:17:07;77.97;;;20.65;;
13325;SDS011;6732;51.044;3.746;2022-09-13T17:19:33;65.70;;;17.02;;
13325;SDS011;6732;51.044;3.746;2022-09-13T17:22:00;78.88;;;18.27;;
13325;SDS011;6732;51.044;3.746;2022-09-13T17:24:28;73.80;;;17.80;;
13325;SDS011;6732;51.044;3.746;2022-09-13T17:26:55;61.78;;;17.15;;
13325;SDS011;6732;51.044;3.746;2022-09-13T17:29:22;73.70;;;17.85;;
13325;SDS011;6732;51.044;3.746;2022-09-13T17:31:50;68.35;;;17.00;;
13325;SDS011;6732;51.044;3.746;2022-09-13T17:34:17;61.30;;;16.13;;
13325;SDS011;6732;51.044;3.746;2022-09-13T17:36:43;75.10;;;18.73;;
13325;SDS011;6732;51.044;3.746;2022-09-13T17:39:09;52.75;;;14.02;;
13325;SDS011;6732;51.044;3.746;2022-09-13T17:41:36;54.53;;;14.32;;
13325;SDS011;6732;51.044;3.746;2022-09-13T17:44:02;47.20;;;13.35;;
13325;SDS011;6732;51.044;3.746;2022-09-13T17:46:28;56.38;;;14.85;;
13325;SDS011;6732;51.044;3.746;2022-09-13T17:48:55;48.95;;;13.95;;
13325;SDS011;6732;51.044;3.746;2022-09-13T17:51:24;36.25;;;12.27;;
13325;SDS011;6732;51.044;3.746;2022-09-13T17:53:52;39.10;;;11.40;;
13325;SDS011;6732;51.044;3.746;2022-09-13T17:56:21;47.83;;;12.02;;
13325;SDS011;6732;51.044;3.746;2022-09-13T17:58:54;38.78;;;11.00;;
13325;SDS011;6732;51.044;3.746;2022-09-13T18:01:21;39.55;;;10.88;;
13325;SDS011;6732;51.044;3.746;2022-09-13T18:03:47;39.33;;;10.25;;
13325;SDS011;6732;51.044;3.746;2022-09-13T18:06:13;35.58;;;9.60;;
13325;SDS011;6732;51.044;3.746;2022-09-13T18:08:39;30.50;;;9.70;;
13325;SDS011;6732;51.044;3.746;2022-09-13T18:11:07;28.50;;;8.77;;
13325;SDS011;6732;51.044;3.746;2022-09-13T18:14:30;35.85;;;9.75;;
13325;SDS011;6732;51.044;3.746;2022-09-13T18:16:57;30.13;;;9.57;;
13325;SDS011;6732;51.044;3.746;2022-09-13T18:19:23;24.75;;;9.45;;
13325;SDS011;6732;51.044;3.746;2022-09-13T18:21:49;30.10;;;8.95;;
13325;SDS011;6732;51.044;3.746;2022-09-13T18:24:15;29.90;;;8.00;;
13325;SDS011;6732;51.044;3.746;2022-09-13T18:26:42;26.17;;;8.10;;